Time;durP1;ratioP1;P1;durP2;ratioP2;P2;SDS_P1;SDS_P2;PMS_P1;PMS_P2;Temp;Humidity;BMP_temperature;BMP_pressure;BME280_temperature;BME280_humidity;BME280_pressure;Samples;Min_cycle;Max_cycle;Signal;HPM_P1;HPM_P2
2022/12/21 00:04:48;;;;;;;0.10;0.00;;;7.30;99.90;;;;;;20120749;29;20037;-59
2022/12/21 00:14:49;;;;;;;0.00;0.00;;;7.30;99.90;;;;;;20191509;29;20045;-59
2022/12/21 00:24:51;;;;;;;0.20;0.10;;;7.20;99.90;;;;;;20196083;29;20056;-60
2022/12/21 00:34:53;;;;;;;0.20;0.00;;;7.10;99.90;;;;;;20194267;29;20440;-59
2022/12/21 00:44:55;;;;;;;0.00;0.00;;;7.20;99.90;;;;;;20174930;29;20109;-59
2022/12/21 00:54:56;;;;;;;0.00;0.00;;;7.10;99.90;;;;;;20175919;29;20396;-59
2022/12/21 01:05:00;;;;;;;0.03;0.00;;;7.20;99.90;;;;;;20191578;29;20100;-58
2022/12/21 01:15:03;;;;;;;0.00;0.00;;;7.20;99.90;;;;;;20189807;29;20460;-58
2022/12/21 01:25:05;;;;;;;0.00;0.00;;;7.30;99.90;;;;;;20175056;29;20093;-58
2022/12/21 01:35:07;;;;;;;0.05;0.00;;;7.00;99.90;;;;;;20187974;29;20405;-58
2022/12/21 01:45:27;;;;;;;0.00;0.00;;;6.80;99.90;;;;;;20187666;29;20276;-62
2022/12/21 01:55:30;;;;;;;0.05;0.00;;;7.00;99.90;;;;;;20172730;29;20403;-59
2022/12/21 02:05:46;;;;;;;0.10;0.00;;;7.00;99.90;;;;;;20169947;29;20057;-59
2022/12/21 02:16:15;;;;;;;0.10;0.00;;;7.30;99.90;;;;;;20166075;29;20819;-58
2022/12/21 02:26:35;;;;;;;0.00;0.00;;;7.20;99.90;;;;;;20166261;29;20049;-57
2022/12/21 02:36:59;;;;;;;0.30;0.03;;;6.70;99.90;;;;;;20168483;29;20400;-62
2022/12/21 02:47:22;;;;;;;0.10;0.00;;;6.70;99.90;;;;;;20152250;29;20049;-58
2022/12/21 02:57:31;;;;;;;0.10;0.00;;;7.30;99.90;;;;;;20187142;29;20049;-57
2022/12/21 03:07:43;;;;;;;0.10;0.00;;;7.30;99.90;;;;;;20171009;29;20816;-60
2022/12/21 03:17:56;;;;;;;0.00;0.00;;;7.50;99.90;;;;;;20169964;29;20492;-57
2022/12/21 03:28:03;;;;;;;0.20;0.10;;;7.60;99.90;;;;;;20200083;29;20112;-61
2022/12/21 03:38:12;;;;;;;2.17;0.70;;;7.40;99.90;;;;;;20183632;29;20075;-61
2022/12/21 03:48:23;;;;;;;1.15;0.68;;;6.80;99.90;;;;;;20196476;29;20077;-61
2022/12/21 03:58:24;;;;;;;0.97;0.40;;;6.00;99.90;;;;;;20197018;29;20045;-61
2022/12/21 04:08:27;;;;;;;0.82;0.40;;;5.20;99.90;;;;;;20195671;29;20053;-62
2022/12/21 04:28:49;;;;;;;0.47;0.08;;;6.30;99.90;;;;;;20196547;29;20052;-61
2022/12/21 04:38:51;;;;;;;0.10;0.05;;;6.70;99.90;;;;;;20196456;29;20049;-61
2022/12/21 04:48:53;;;;;;;0.00;0.00;;;6.80;99.90;;;;;;20192166;29;20041;-61
2022/12/21 04:58:54;;;;;;;0.13;0.00;;;6.90;99.90;;;;;;20194292;29;20093;-63
2022/12/21 05:08:56;;;;;;;0.55;0.10;;;7.10;99.90;;;;;;20192482;29;20049;-60
2022/12/21 05:18:58;;;;;;;0.22;0.17;;;7.20;99.90;;;;;;20190111;29;20045;-61
2022/12/21 05:29:00;;;;;;;0.05;0.00;;;7.20;99.90;;;;;;20188542;29;20093;-61
2022/12/21 05:39:02;;;;;;;0.10;0.10;;;6.90;99.90;;;;;;20189287;29;20171;-61
2022/12/21 05:49:04;;;;;;;0.47;0.00;;;6.70;99.90;;;;;;20187718;29;20112;-61
2022/12/21 05:59:05;;;;;;;0.30;0.00;;;6.80;99.90;;;;;;20174598;29;20097;-61
2022/12/21 06:09:07;;;;;;;0.32;0.03;;;6.70;99.90;;;;;;20187647;29;20041;-62
2022/12/21 06:19:09;;;;;;;0.00;0.00;;;6.80;99.90;;;;;;20166084;29;20074;-61
2022/12/21 06:29:10;;;;;;;0.20;0.00;;;6.90;99.90;;;;;;20184273;29;20403;-60
2022/12/21 06:39:12;;;;;;;0.20;0.00;;;7.00;99.90;;;;;;20185155;29;20531;-63
2022/12/21 06:49:14;;;;;;;0.10;0.10;;;6.80;99.90;;;;;;20180543;29;20060;-61
2022/12/21 06:59:15;;;;;;;0.55;0.05;;;6.80;99.90;;;;;;20182539;29;20053;-59
2022/12/21 07:09:17;;;;;;;0.60;0.13;;;7.10;99.90;;;;;;20124083;29;1221735;-61
2022/12/21 07:19:19;;;;;;;0.10;0.00;;;7.20;99.90;;;;;;20183301;29;20073;-61
2022/12/21 07:29:21;;;;;;;1.23;0.05;;;7.10;99.90;;;;;;20182628;29;20045;-61
2022/12/21 07:39:22;;;;;;;0.30;0.03;;;7.40;99.90;;;;;;20185282;29;20049;-61
2022/12/21 07:49:24;;;;;;;3.85;2.30;;;7.50;99.90;;;;;;20182283;29;20070;-61
2022/12/21 07:59:26;;;;;;;14.07;8.93;;;7.10;99.90;;;;;;20193503;29;20381;-61
2022/12/21 08:09:27;;;;;;;8.63;5.13;;;6.60;99.90;;;;;;20167739;29;20503;-61
2022/12/21 08:19:29;;;;;;;1.33;0.20;;;5.60;99.90;;;;;;20178313;29;20449;-61
2022/12/21 08:29:31;;;;;;;10.98;6.88;;;6.20;99.90;;;;;;20176463;29;20545;-61
2022/12/21 08:39:33;;;;;;;11.52;7.57;;;6.80;99.90;;;;;;20194130;29;20049;-61
2022/12/21 08:49:34;;;;;;;21.10;14.35;;;5.20;99.90;;;;;;20192916;29;20042;-60
2022/12/21 08:59:36;;;;;;;26.45;17.17;;;4.50;99.90;;;;;;20188019;29;20053;-61
2022/12/21 09:09:38;;;;;;;11.77;7.72;;;3.80;99.90;;;;;;20193729;29;20484;-60
2022/12/21 09:19:40;;;;;;;24.40;13.98;;;4.30;99.90;;;;;;20191295;29;20184;-61
2022/12/21 09:29:42;;;;;;;8.30;5.80;;;5.20;99.90;;;;;;20190523;29;20052;-60
2022/12/21 09:39:44;;;;;;;17.98;10.85;;;5.40;99.90;;;;;;20191007;29;20045;-61
2022/12/21 09:50:01;;;;;;;7.75;4.90;;;6.40;99.90;;;;;;20188479;29;20046;-61
2022/12/21 10:00:16;;;;;;;15.30;10.57;;;6.70;99.90;;;;;;20187212;29;20424;-61
2022/12/21 10:10:25;;;;;;;9.20;6.30;;;6.40;99.90;;;;;;20187165;29;20037;-60
2022/12/21 10:20:56;;;;;;;18.30;12.02;;;6.50;99.90;;;;;;20185346;29;20376;-59
2022/12/21 10:31:06;;;;;;;18.02;12.07;;;8.10;99.90;;;;;;20184516;29;20059;-61
2022/12/21 10:41:19;;;;;;;25.90;17.50;;;7.00;99.90;;;;;;20170822;29;20053;-60
2022/12/21 10:51:32;;;;;;;30.08;19.20;;;5.60;99.90;;;;;;20187083;29;20068;-60
2022/12/21 11:01:34;;;;;;;26.05;16.65;;;5.20;99.90;;;;;;20184067;29;20053;-61
2022/12/21 11:11:37;;;;;;;12.23;7.75;;;5.80;99.90;;;;;;20185019;29;20045;-61
2022/12/21 11:21:53;;;;;;;12.80;8.75;;;5.60;99.90;;;;;;20183698;29;20057;-59
2022/12/21 11:32:02;;;;;;;4.32;2.60;;;6.70;99.90;;;;;;20189332;29;20048;-60
2022/12/21 11:42:19;;;;;;;12.90;9.20;;;7.60;99.90;;;;;;20195164;29;20052;-61
2022/12/21 11:52:23;;;;;;;14.88;10.30;;;7.10;99.90;;;;;;20196766;29;20898;-61
2022/12/21 12:02:31;;;;;;;20.88;14.75;;;6.00;99.90;;;;;;20179371;29;20480;-61
2022/12/21 12:13:07;;;;;;;18.38;11.43;;;5.60;99.90;;;;;;20181216;29;20109;-60
2022/12/21 12:23:30;;;;;;;4.00;2.17;;;5.20;99.90;;;;;;20175788;29;20591;-61
2022/12/21 12:34:07;;;;;;;1.08;0.30;;;6.50;99.90;;;;;;20177206;29;20124;-61
2022/12/21 12:44:27;;;;;;;16.17;11.70;;;7.20;99.90;;;;;;20183142;29;20045;-61
2022/12/21 12:55:04;;;;;;;3.50;2.30;;;6.10;99.90;;;;;;20176214;29;20041;-61
2022/12/21 13:05:29;;;;;;;13.57;8.93;;;6.10;99.90;;;;;;20159643;29;20040;-61
2022/12/21 13:16:00;;;;;;;22.08;15.00;;;6.60;99.90;;;;;;20194538;29;20052;-61
2022/12/21 13:26:13;;;;;;;;;;;6.20;99.90;;;;;;20175634;29;20052;-61
2022/12/21 13:36:18;;;;;;;15.60;10.02;;;6.10;99.90;;;;;;20188967;29;19975;-60
2022/12/21 13:46:22;;;;;;;6.60;4.30;;;6.20;99.90;;;;;;20189465;29;20041;-61
2022/12/21 13:56:40;;;;;;;21.20;13.70;;;6.20;99.90;;;;;;20189316;29;20056;-60
2022/12/21 14:06:48;;;;;;;15.25;9.75;;;5.30;99.90;;;;;;20187853;29;20049;-60
2022/12/21 14:17:02;;;;;;;11.05;7.25;;;5.20;99.90;;;;;;20186215;29;20084;-61
2022/12/21 14:27:08;;;;;;;1.52;0.60;;;5.80;99.90;;;;;;20185275;29;20058;-63
2022/12/21 14:37:09;;;;;;;0.60;0.40;;;6.50;99.90;;;;;;20171274;29;20492;-61
2022/12/21 14:47:12;;;;;;;0.55;0.10;;;7.00;99.90;;;;;;20184766;29;20049;-61
2022/12/21 14:57:18;;;;;;;5.30;3.30;;;7.30;99.90;;;;;;20186684;29;20045;-61
2022/12/21 15:07:32;;;;;;;0.05;0.00;;;7.30;99.90;;;;;;20176388;29;20041;-60
2022/12/21 15:17:34;;;;;;;0.20;0.00;;;7.70;99.90;;;;;;20182469;29;20086;-60
2022/12/21 15:27:43;;;;;;;0.10;0.00;;;7.80;99.90;;;;;;20195034;29;20029;-61
2022/12/21 15:37:46;;;;;;;0.00;0.00;;;7.90;99.90;;;;;;20198131;29;20461;-61
2022/12/21 15:47:58;;;;;;;0.30;0.00;;;7.90;99.90;;;;;;20197334;29;20087;-60
2022/12/21 15:58:12;;;;;;;0.38;0.00;;;7.90;99.90;;;;;;20199678;29;20049;-60
2022/12/21 16:08:20;;;;;;;0.00;0.00;;;7.90;99.90;;;;;;20198399;29;20049;-61
2022/12/21 16:18:33;;;;;;;0.00;0.00;;;7.60;99.90;;;;;;20161693;29;20045;-59
2022/12/21 16:28:40;;;;;;;0.00;0.00;;;7.60;99.90;;;;;;20178813;29;20411;-59
2022/12/21 16:38:42;;;;;;;0.85;0.05;;;7.70;99.90;;;;;;20195231;29;20092;-60
2022/12/21 16:48:49;;;;;;;0.10;0.00;;;7.80;99.90;;;;;;20175877;29;20041;-60
2022/12/21 16:58:55;;;;;;;0.00;0.00;;;7.60;99.90;;;;;;20176499;29;20041;-60
2022/12/21 17:08:57;;;;;;;0.00;0.00;;;7.50;99.90;;;;;;20195083;29;20098;-60
2022/12/21 17:19:14;;;;;;;0.00;0.00;;;7.60;99.90;;;;;;20190051;29;20041;-60
2022/12/21 17:29:15;;;;;;;1.52;0.20;;;7.60;99.90;;;;;;20191676;29;20048;-61
2022/12/21 17:39:19;;;;;;;0.00;0.00;;;7.60;99.90;;;;;;20191518;29;20056;-60
2022/12/21 17:49:21;;;;;;;0.00;0.00;;;7.60;99.90;;;;;;20187821;29;20049;-61
2022/12/21 17:59:23;;;;;;;0.35;0.00;;;7.70;99.90;;;;;;20189236;29;20109;-61
2022/12/21 18:09:24;;;;;;;0.00;0.00;;;7.60;99.90;;;;;;20187003;29;20411;-60
2022/12/21 18:19:26;;;;;;;0.30;0.10;;;7.50;99.90;;;;;;20169346;29;20097;-60
2022/12/21 18:29:28;;;;;;;0.00;0.00;;;7.40;99.90;;;;;;20188449;29;20376;-59
2022/12/21 18:39:30;;;;;;;0.60;0.40;;;7.30;99.90;;;;;;20155516;29;20105;-61
2022/12/21 18:49:32;;;;;;;2.90;1.90;;;6.70;99.90;;;;;;20184859;29;20045;-61
2022/12/21 18:59:33;;;;;;;3.78;2.17;;;6.40;99.90;;;;;;20186155;29;20102;-60
2022/12/21 19:09:35;;;;;;;2.33;1.02;;;5.50;99.90;;;;;;20168593;29;20049;-60
2022/12/21 19:19:37;;;;;;;0.20;0.08;;;5.00;99.90;;;;;;20184056;29;20069;-59
2022/12/21 19:29:39;;;;;;;0.00;0.00;;;6.40;99.90;;;;;;20182108;29;20542;-61
2022/12/21 19:39:43;;;;;;;0.20;0.00;;;6.90;99.90;;;;;;20166094;29;20571;-60
2022/12/21 19:49:46;;;;;;;5.38;4.05;;;7.20;99.90;;;;;;20186086;29;20049;-61
2022/12/21 19:59:50;;;;;;;1.05;0.60;;;6.50;99.90;;;;;;20197095;29;20041;-61
2022/12/21 20:09:51;;;;;;;0.00;0.00;;;6.10;99.90;;;;;;20181341;29;20049;-61
2022/12/21 20:19:54;;;;;;;0.00;0.00;;;6.90;99.90;;;;;;20196356;29;20407;-59
2022/12/21 20:29:57;;;;;;;0.00;0.00;;;7.20;99.90;;;;;;20193423;29;20404;-60
2022/12/21 20:39:59;;;;;;;0.00;0.00;;;7.00;99.90;;;;;;20194396;29;20449;-59
2022/12/21 20:50:14;;;;;;;0.00;0.00;;;7.00;99.90;;;;;;20178118;29;20044;-57
2022/12/21 21:00:22;;;;;;;0.00;0.00;;;7.00;99.90;;;;;;20173323;29;20053;-59
2022/12/21 21:10:25;;;;;;;0.10;0.10;;;7.00;99.90;;;;;;20177271;29;20049;-56
2022/12/21 21:30:59;;;;;;;0.00;0.00;;;6.40;99.90;;;;;;20189040;29;20048;-56
2022/12/21 21:51:21;;;;;;;0.00;0.00;;;6.10;99.90;;;;;;20188595;29;20404;-61
2022/12/21 22:01:25;;;;;;;0.00;0.00;;;6.30;99.90;;;;;;20187659;29;20349;-58
2022/12/21 22:11:29;;;;;;;0.00;0.00;;;6.70;99.90;;;;;;20189663;29;20057;-59
2022/12/21 22:42:30;;;;;;;;;;;7.10;99.90;;;;;;20183936;29;20045;-55
2022/12/21 22:52:34;;;;;;;0.00;0.00;;;7.10;99.90;;;;;;20170279;29;20299;-56
2022/12/21 23:02:36;;;;;;;0.00;0.00;;;7.10;99.90;;;;;;20184150;29;20435;-59
2022/12/21 23:43:45;;;;;;;0.00;0.00;;;6.80;99.90;;;;;;20200406;29;20045;-61
